sensor_id;sensor_type;location;lat;lon;timestamp;P1;durP1;ratioP1;P2;durP2;ratioP2
9968;SDS011;5025;48.890;9.278;2023-09-08T00:00:22;5.53;;;5.17;;
9968;SDS011;5025;48.890;9.278;2023-09-08T00:02:47;5.67;;;5.27;;
9968;SDS011;5025;48.890;9.278;2023-09-08T00:05:12;5.50;;;5.10;;
9968;SDS011;5025;48.890;9.278;2023-09-08T00:07:37;5.00;;;4.70;;
9968;SDS011;5025;48.890;9.278;2023-09-08T00:10:03;5.60;;;5.20;;
9968;SDS011;5025;48.890;9.278;2023-09-08T00:12:28;5.60;;;5.20;;
9968;SDS011;5025;48.890;9.278;2023-09-08T00:14:54;5.27;;;4.87;;
9968;SDS011;5025;48.890;9.278;2023-09-08T00:17:19;5.80;;;5.20;;
9968;SDS011;5025;48.890;9.278;2023-09-08T00:19:44;5.00;;;4.70;;
9968;SDS011;5025;48.890;9.278;2023-09-08T00:22:10;5.40;;;5.00;;
9968;SDS011;5025;48.890;9.278;2023-09-08T00:24:35;5.20;;;4.80;;
9968;SDS011;5025;48.890;9.278;2023-09-08T00:27:00;5.60;;;5.10;;
9968;SDS011;5025;48.890;9.278;2023-09-08T00:29:26;5.00;;;4.60;;
9968;SDS011;5025;48.890;9.278;2023-09-08T00:31:51;4.93;;;4.63;;
9968;SDS011;5025;48.890;9.278;2023-09-08T00:34:16;5.47;;;5.00;;
9968;SDS011;5025;48.890;9.278;2023-09-08T00:36:42;5.33;;;4.93;;
9968;SDS011;5025;48.890;9.278;2023-09-08T00:39:07;5.37;;;5.00;;
9968;SDS011;5025;48.890;9.278;2023-09-08T00:41:32;5.50;;;5.00;;
9968;SDS011;5025;48.890;9.278;2023-09-08T00:43:58;5.47;;;5.07;;
9968;SDS011;5025;48.890;9.278;2023-09-08T00:46:23;5.40;;;5.00;;
9968;SDS011;5025;48.890;9.278;2023-09-08T00:48:50;4.83;;;4.53;;
9968;SDS011;5025;48.890;9.278;2023-09-08T00:51:15;5.33;;;4.97;;
9968;SDS011;5025;48.890;9.278;2023-09-08T00:53:40;5.53;;;5.13;;
9968;SDS011;5025;48.890;9.278;2023-09-08T00:56:06;5.00;;;4.60;;
9968;SDS011;5025;48.890;9.278;2023-09-08T00:58:33;5.70;;;5.27;;
9968;SDS011;5025;48.890;9.278;2023-09-08T01:00:58;5.57;;;5.17;;
9968;SDS011;5025;48.890;9.278;2023-09-08T01:03:24;6.00;;;5.50;;
9968;SDS011;5025;48.890;9.278;2023-09-08T01:05:50;5.87;;;5.37;;
9968;SDS011;5025;48.890;9.278;2023-09-08T01:08:16;5.77;;;5.33;;
9968;SDS011;5025;48.890;9.278;2023-09-08T01:10:42;5.20;;;4.90;;
9968;SDS011;5025;48.890;9.278;2023-09-08T01:13:07;5.23;;;4.83;;
9968;SDS011;5025;48.890;9.278;2023-09-08T01:15:33;5.80;;;5.33;;
9968;SDS011;5025;48.890;9.278;2023-09-08T01:17:58;5.70;;;5.30;;
9968;SDS011;5025;48.890;9.278;2023-09-08T01:20:24;5.50;;;5.10;;
9968;SDS011;5025;48.890;9.278;2023-09-08T01:23:00;5.50;;;5.10;;
9968;SDS011;5025;48.890;9.278;2023-09-08T01:25:29;5.47;;;5.17;;
9968;SDS011;5025;48.890;9.278;2023-09-08T01:27:58;5.90;;;5.50;;
9968;SDS011;5025;48.890;9.278;2023-09-08T01:30:26;5.47;;;5.07;;
9968;SDS011;5025;48.890;9.278;2023-09-08T01:32:54;5.93;;;5.53;;
9968;SDS011;5025;48.890;9.278;2023-09-08T01:35:20;5.37;;;4.97;;
9968;SDS011;5025;48.890;9.278;2023-09-08T01:37:47;5.10;;;4.80;;
9968;SDS011;5025;48.890;9.278;2023-09-08T01:40:13;5.97;;;5.20;;
9968;SDS011;5025;48.890;9.278;2023-09-08T01:42:39;5.53;;;5.13;;
9968;SDS011;5025;48.890;9.278;2023-09-08T01:45:05;5.60;;;5.20;;
9968;SDS011;5025;48.890;9.278;2023-09-08T01:47:31;5.67;;;5.27;;
9968;SDS011;5025;48.890;9.278;2023-09-08T01:49:57;5.60;;;5.20;;
9968;SDS011;5025;48.890;9.278;2023-09-08T01:52:22;5.47;;;5.07;;
9968;SDS011;5025;48.890;9.278;2023-09-08T01:54:49;5.90;;;5.40;;
9968;SDS011;5025;48.890;9.278;2023-09-08T01:57:14;5.43;;;5.03;;
9968;SDS011;5025;48.890;9.278;2023-09-08T01:59:39;5.50;;;5.10;;
9968;SDS011;5025;48.890;9.278;2023-09-08T02:02:05;5.60;;;5.20;;
9968;SDS011;5025;48.890;9.278;2023-09-08T02:04:30;5.23;;;4.90;;
9968;SDS011;5025;48.890;9.278;2023-09-08T02:06:55;5.43;;;5.10;;
9968;SDS011;5025;48.890;9.278;2023-09-08T02:09:20;5.63;;;5.23;;
9968;SDS011;5025;48.890;9.278;2023-09-08T02:11:47;5.53;;;5.13;;
9968;SDS011;5025;48.890;9.278;2023-09-08T02:14:12;5.67;;;5.27;;
9968;SDS011;5025;48.890;9.278;2023-09-08T02:16:38;5.80;;;5.40;;
9968;SDS011;5025;48.890;9.278;2023-09-08T02:19:04;6.50;;;5.90;;
9968;SDS011;5025;48.890;9.278;2023-09-08T02:21:29;5.80;;;5.40;;
9968;SDS011;5025;48.890;9.278;2023-09-08T02:23:55;6.20;;;5.60;;
9968;SDS011;5025;48.890;9.278;2023-09-08T02:26:20;5.83;;;5.00;;
9968;SDS011;5025;48.890;9.278;2023-09-08T02:28:45;6.10;;;5.60;;
9968;SDS011;5025;48.890;9.278;2023-09-08T02:31:11;5.77;;;5.37;;
9968;SDS011;5025;48.890;9.278;2023-09-08T02:33:37;5.90;;;5.40;;
9968;SDS011;5025;48.890;9.278;2023-09-08T02:36:03;5.67;;;5.27;;
9968;SDS011;5025;48.890;9.278;2023-09-08T02:38:30;5.80;;;5.40;;
9968;SDS011;5025;48.890;9.278;2023-09-08T02:40:56;5.43;;;4.97;;
9968;SDS011;5025;48.890;9.278;2023-09-08T02:43:22;5.70;;;5.30;;
9968;SDS011;5025;48.890;9.278;2023-09-08T02:45:47;5.50;;;5.10;;
9968;SDS011;5025;48.890;9.278;2023-09-08T02:48:12;5.80;;;5.40;;
9968;SDS011;5025;48.890;9.278;2023-09-08T02:50:37;5.97;;;5.47;;
9968;SDS011;5025;48.890;9.278;2023-09-08T02:53:03;5.80;;;5.40;;
9968;SDS011;5025;48.890;9.278;2023-09-08T02:55:28;5.67;;;5.27;;
9968;SDS011;5025;48.890;9.278;2023-09-08T02:57:54;6.17;;;5.67;;
9968;SDS011;5025;48.890;9.278;2023-09-08T03:00:20;5.90;;;5.50;;
9968;SDS011;5025;48.890;9.278;2023-09-08T03:02:45;6.10;;;5.60;;
9968;SDS011;5025;48.890;9.278;2023-09-08T03:05:10;5.90;;;5.50;;
9968;SDS011;5025;48.890;9.278;2023-09-08T03:07:36;5.90;;;5.40;;
9968;SDS011;5025;48.890;9.278;2023-09-08T03:10:02;5.87;;;5.47;;
9968;SDS011;5025;48.890;9.278;2023-09-08T03:12:28;6.10;;;5.60;;
9968;SDS011;5025;48.890;9.278;2023-09-08T03:14:54;5.73;;;5.33;;
9968;SDS011;5025;48.890;9.278;2023-09-08T03:17:20;6.07;;;5.67;;
9968;SDS011;5025;48.890;9.278;2023-09-08T03:19:45;5.97;;;5.57;;
9968;SDS011;5025;48.890;9.278;2023-09-08T03:22:11;6.03;;;5.40;;
9968;SDS011;5025;48.890;9.278;2023-09-08T03:24:36;6.17;;;5.67;;
9968;SDS011;5025;48.890;9.278;2023-09-08T03:27:02;6.00;;;5.60;;
9968;SDS011;5025;48.890;9.278;2023-09-08T03:29:27;5.67;;;5.27;;
9968;SDS011;5025;48.890;9.278;2023-09-08T03:31:52;5.37;;;5.07;;
9968;SDS011;5025;48.890;9.278;2023-09-08T03:34:17;5.60;;;5.20;;
9968;SDS011;5025;48.890;9.278;2023-09-08T03:36:45;5.70;;;5.30;;
9968;SDS011;5025;48.890;9.278;2023-09-08T03:39:10;5.87;;;5.47;;
9968;SDS011;5025;48.890;9.278;2023-09-08T03:41:36;5.73;;;5.27;;
9968;SDS011;5025;48.890;9.278;2023-09-08T03:44:01;5.83;;;5.43;;
9968;SDS011;5025;48.890;9.278;2023-09-08T03:46:26;5.83;;;5.30;;
9968;SDS011;5025;48.890;9.278;2023-09-08T03:48:52;5.83;;;5.43;;
9968;SDS011;5025;48.890;9.278;2023-09-08T03:51:19;5.63;;;5.13;;
9968;SDS011;5025;48.890;9.278;2023-09-08T03:53:44;5.40;;;5.00;;
9968;SDS011;5025;48.890;9.278;2023-09-08T03:56:10;5.13;;;4.77;;
9968;SDS011;5025;48.890;9.278;2023-09-08T03:58:35;5.60;;;5.20;;
9968;SDS011;5025;48.890;9.278;2023-09-08T04:01:00;5.57;;;5.17;;
9968;SDS011;5025;48.890;9.278;2023-09-08T04:03:25;5.80;;;5.30;;
9968;SDS011;5025;48.890;9.278;2023-09-08T04:05:51;5.50;;;5.10;;
9968;SDS011;5025;48.890;9.278;2023-09-08T04:08:16;6.00;;;5.50;;
9968;SDS011;5025;48.890;9.278;2023-09-08T04:10:41;5.70;;;5.30;;
9968;SDS011;5025;48.890;9.278;2023-09-08T04:13:06;5.43;;;5.03;;
9968;SDS011;5025;48.890;9.278;2023-09-08T04:15:32;5.93;;;5.50;;
9968;SDS011;5025;48.890;9.278;2023-09-08T04:17:57;5.70;;;5.30;;
9968;SDS011;5025;48.890;9.278;2023-09-08T04:20:22;5.77;;;5.30;;
9968;SDS011;5025;48.890;9.278;2023-09-08T04:22:48;6.03;;;5.53;;
9968;SDS011;5025;48.890;9.278;2023-09-08T04:25:13;5.60;;;5.10;;
9968;SDS011;5025;48.890;9.278;2023-09-08T04:27:38;5.90;;;5.50;;
9968;SDS011;5025;48.890;9.278;2023-09-08T04:30:04;5.80;;;5.40;;
9968;SDS011;5025;48.890;9.278;2023-09-08T04:32:30;5.53;;;5.13;;
9968;SDS011;5025;48.890;9.278;2023-09-08T04:34:55;6.03;;;5.63;;
9968;SDS011;5025;48.890;9.278;2023-09-08T04:37:21;5.80;;;5.40;;
9968;SDS011;5025;48.890;9.278;2023-09-08T04:39:46;5.80;;;5.30;;
9968;SDS011;5025;48.890;9.278;2023-09-08T04:42:11;5.77;;;5.27;;
9968;SDS011;5025;48.890;9.278;2023-09-08T04:44:37;5.60;;;5.20;;
9968;SDS011;5025;48.890;9.278;2023-09-08T04:47:03;5.63;;;5.23;;
9968;SDS011;5025;48.890;9.278;2023-09-08T04:49:29;5.97;;;5.47;;
9968;SDS011;5025;48.890;9.278;2023-09-08T04:51:54;6.03;;;5.60;;
9968;SDS011;5025;48.890;9.278;2023-09-08T04:54:19;6.10;;;5.60;;
9968;SDS011;5025;48.890;9.278;2023-09-08T04:56:45;5.53;;;5.13;;
9968;SDS011;5025;48.890;9.278;2023-09-08T04:59:10;5.63;;;5.13;;
9968;SDS011;5025;48.890;9.278;2023-09-08T05:01:35;6.23;;;5.73;;
9968;SDS011;5025;48.890;9.278;2023-09-08T05:04:02;5.87;;;5.37;;
9968;SDS011;5025;48.890;9.278;2023-09-08T05:06:28;5.63;;;5.23;;
9968;SDS011;5025;48.890;9.278;2023-09-08T05:08:53;6.20;;;5.80;;
9968;SDS011;5025;48.890;9.278;2023-09-08T05:11:18;6.90;;;6.40;;
9968;SDS011;5025;48.890;9.278;2023-09-08T05:13:44;7.57;;;6.83;;
9968;SDS011;5025;48.890;9.278;2023-09-08T05:16:11;7.40;;;6.40;;
9968;SDS011;5025;48.890;9.278;2023-09-08T05:18:37;7.27;;;6.57;;
9968;SDS011;5025;48.890;9.278;2023-09-08T05:21:03;7.37;;;6.67;;
9968;SDS011;5025;48.890;9.278;2023-09-08T05:23:29;7.37;;;6.63;;
9968;SDS011;5025;48.890;9.278;2023-09-08T05:25:54;7.50;;;6.70;;
9968;SDS011;5025;48.890;9.278;2023-09-08T05:28:20;6.33;;;5.83;;
9968;SDS011;5025;48.890;9.278;2023-09-08T05:30:45;6.30;;;5.80;;
9968;SDS011;5025;48.890;9.278;2023-09-08T05:33:10;6.50;;;6.00;;
9968;SDS011;5025;48.890;9.278;2023-09-08T05:35:36;6.23;;;5.73;;
9968;SDS011;5025;48.890;9.278;2023-09-08T05:38:01;5.80;;;5.30;;
9968;SDS011;5025;48.890;9.278;2023-09-08T05:40:26;5.80;;;5.40;;
9968;SDS011;5025;48.890;9.278;2023-09-08T05:42:51;6.73;;;6.13;;
9968;SDS011;5025;48.890;9.278;2023-09-08T05:45:17;5.43;;;5.10;;
9968;SDS011;5025;48.890;9.278;2023-09-08T05:47:42;6.40;;;5.90;;
9968;SDS011;5025;48.890;9.278;2023-09-08T05:50:07;6.10;;;5.60;;
9968;SDS011;5025;48.890;9.278;2023-09-08T05:52:33;6.43;;;5.83;;
9968;SDS011;5025;48.890;9.278;2023-09-08T05:54:58;7.10;;;6.40;;
9968;SDS011;5025;48.890;9.278;2023-09-08T05:57:24;6.87;;;6.23;;
9968;SDS011;5025;48.890;9.278;2023-09-08T05:59:49;6.10;;;5.70;;
9968;SDS011;5025;48.890;9.278;2023-09-08T06:02:14;7.20;;;6.57;;
9968;SDS011;5025;48.890;9.278;2023-09-08T06:04:39;7.43;;;6.77;;
9968;SDS011;5025;48.890;9.278;2023-09-08T06:07:05;6.67;;;6.17;;
9968;SDS011;5025;48.890;9.278;2023-09-08T06:09:30;6.37;;;5.87;;
9968;SDS011;5025;48.890;9.278;2023-09-08T06:11:55;6.43;;;5.93;;
9968;SDS011;5025;48.890;9.278;2023-09-08T06:14:20;6.57;;;6.13;;
9968;SDS011;5025;48.890;9.278;2023-09-08T06:16:46;6.87;;;6.27;;
9968;SDS011;5025;48.890;9.278;2023-09-08T06:19:12;6.90;;;6.30;;
9968;SDS011;5025;48.890;9.278;2023-09-08T06:21:37;8.83;;;7.57;;
9968;SDS011;5025;48.890;9.278;2023-09-08T06:24:02;7.50;;;6.90;;
9968;SDS011;5025;48.890;9.278;2023-09-08T06:26:28;7.77;;;7.17;;
9968;SDS011;5025;48.890;9.278;2023-09-08T06:28:53;7.23;;;6.53;;
9968;SDS011;5025;48.890;9.278;2023-09-08T06:31:18;7.23;;;6.63;;
9968;SDS011;5025;48.890;9.278;2023-09-08T06:33:44;7.83;;;7.23;;
9968;SDS011;5025;48.890;9.278;2023-09-08T06:36:09;7.50;;;6.80;;
9968;SDS011;5025;48.890;9.278;2023-09-08T06:38:34;7.40;;;6.70;;
9968;SDS011;5025;48.890;9.278;2023-09-08T06:40:59;7.07;;;6.47;;
9968;SDS011;5025;48.890;9.278;2023-09-08T06:43:25;7.50;;;6.80;;
9968;SDS011;5025;48.890;9.278;2023-09-08T06:45:51;7.60;;;7.00;;
9968;SDS011;5025;48.890;9.278;2023-09-08T06:48:16;7.73;;;7.13;;
9968;SDS011;5025;48.890;9.278;2023-09-08T06:50:41;7.17;;;6.67;;
9968;SDS011;5025;48.890;9.278;2023-09-08T06:53:07;7.30;;;6.70;;
9968;SDS011;5025;48.890;9.278;2023-09-08T06:55:32;7.50;;;6.97;;
9968;SDS011;5025;48.890;9.278;2023-09-08T06:57:57;6.90;;;6.40;;
9968;SDS011;5025;48.890;9.278;2023-09-08T07:00:23;7.13;;;6.53;;
9968;SDS011;5025;48.890;9.278;2023-09-08T07:02:48;6.80;;;6.30;;
9968;SDS011;5025;48.890;9.278;2023-09-08T07:05:16;7.80;;;7.03;;
9968;SDS011;5025;48.890;9.278;2023-09-08T07:07:42;7.07;;;6.57;;
9968;SDS011;5025;48.890;9.278;2023-09-08T07:10:07;8.00;;;7.30;;
9968;SDS011;5025;48.890;9.278;2023-09-08T07:12:34;7.60;;;6.97;;
9968;SDS011;5025;48.890;9.278;2023-09-08T07:14:59;7.00;;;6.50;;
9968;SDS011;5025;48.890;9.278;2023-09-08T07:17:25;6.70;;;6.20;;
9968;SDS011;5025;48.890;9.278;2023-09-08T07:19:50;6.27;;;5.87;;
9968;SDS011;5025;48.890;9.278;2023-09-08T07:22:15;6.03;;;5.63;;
9968;SDS011;5025;48.890;9.278;2023-09-08T07:24:41;6.60;;;6.07;;
9968;SDS011;5025;48.890;9.278;2023-09-08T07:27:06;6.20;;;5.70;;
9968;SDS011;5025;48.890;9.278;2023-09-08T07:29:32;5.93;;;5.53;;
9968;SDS011;5025;48.890;9.278;2023-09-08T07:31:57;6.20;;;5.70;;
9968;SDS011;5025;48.890;9.278;2023-09-08T07:34:22;6.00;;;5.60;;
9968;SDS011;5025;48.890;9.278;2023-09-08T07:36:47;5.70;;;5.30;;
9968;SDS011;5025;48.890;9.278;2023-09-08T07:39:13;5.63;;;5.23;;
9968;SDS011;5025;48.890;9.278;2023-09-08T07:41:38;5.83;;;5.43;;
9968;SDS011;5025;48.890;9.278;2023-09-08T07:44:05;5.63;;;5.23;;
9968;SDS011;5025;48.890;9.278;2023-09-08T07:46:31;6.13;;;5.63;;
9968;SDS011;5025;48.890;9.278;2023-09-08T07:48:57;5.37;;;5.03;;
9968;SDS011;5025;48.890;9.278;2023-09-08T07:51:23;5.23;;;4.90;;
9968;SDS011;5025;48.890;9.278;2023-09-08T07:53:49;5.87;;;5.37;;
9968;SDS011;5025;48.890;9.278;2023-09-08T07:56:14;5.73;;;5.23;;
9968;SDS011;5025;48.890;9.278;2023-09-08T07:58:39;5.90;;;5.40;;
9968;SDS011;5025;48.890;9.278;2023-09-08T08:01:05;5.63;;;5.23;;
9968;SDS011;5025;48.890;9.278;2023-09-08T08:03:30;5.37;;;5.00;;
9968;SDS011;5025;48.890;9.278;2023-09-08T08:05:59;5.67;;;5.27;;
9968;SDS011;5025;48.890;9.278;2023-09-08T08:08:24;5.60;;;5.20;;
9968;SDS011;5025;48.890;9.278;2023-09-08T08:10:49;5.83;;;5.43;;
9968;SDS011;5025;48.890;9.278;2023-09-08T08:13:14;6.40;;;5.90;;
9968;SDS011;5025;48.890;9.278;2023-09-08T08:15:40;5.57;;;5.17;;
9968;SDS011;5025;48.890;9.278;2023-09-08T08:18:07;5.87;;;5.47;;
9968;SDS011;5025;48.890;9.278;2023-09-08T08:20:36;5.77;;;5.37;;
9968;SDS011;5025;48.890;9.278;2023-09-08T08:23:03;5.60;;;5.20;;
9968;SDS011;5025;48.890;9.278;2023-09-08T08:25:29;5.50;;;5.20;;
9968;SDS011;5025;48.890;9.278;2023-09-08T08:27:54;5.10;;;4.80;;
9968;SDS011;5025;48.890;9.278;2023-09-08T08:30:21;5.43;;;4.93;;
9968;SDS011;5025;48.890;9.278;2023-09-08T08:32:46;5.63;;;5.20;;
9968;SDS011;5025;48.890;9.278;2023-09-08T08:35:12;6.17;;;5.67;;
9968;SDS011;5025;48.890;9.278;2023-09-08T08:37:39;6.17;;;5.67;;
9968;SDS011;5025;48.890;9.278;2023-09-08T08:40:05;5.87;;;5.47;;
9968;SDS011;5025;48.890;9.278;2023-09-08T08:42:32;5.73;;;5.23;;
9968;SDS011;5025;48.890;9.278;2023-09-08T08:44:58;5.60;;;5.20;;
9968;SDS011;5025;48.890;9.278;2023-09-08T08:47:27;5.20;;;4.90;;
9968;SDS011;5025;48.890;9.278;2023-09-08T08:49:54;5.20;;;4.90;;
9968;SDS011;5025;48.890;9.278;2023-09-08T08:52:21;6.10;;;5.63;;
9968;SDS011;5025;48.890;9.278;2023-09-08T08:54:47;5.53;;;5.13;;
9968;SDS011;5025;48.890;9.278;2023-09-08T08:57:12;5.73;;;5.23;;
9968;SDS011;5025;48.890;9.278;2023-09-08T08:59:38;5.23;;;4.93;;
9968;SDS011;5025;48.890;9.278;2023-09-08T09:02:06;5.37;;;5.00;;
9968;SDS011;5025;48.890;9.278;2023-09-08T09:04:33;5.70;;;5.30;;
9968;SDS011;5025;48.890;9.278;2023-09-08T09:07:01;5.20;;;4.90;;
9968;SDS011;5025;48.890;9.278;2023-09-08T09:09:26;5.20;;;4.80;;
9968;SDS011;5025;48.890;9.278;2023-09-08T09:11:53;4.43;;;4.23;;
9968;SDS011;5025;48.890;9.278;2023-09-08T09:14:18;5.80;;;5.30;;
9968;SDS011;5025;48.890;9.278;2023-09-08T09:16:44;5.70;;;5.30;;
9968;SDS011;5025;48.890;9.278;2023-09-08T09:19:10;5.87;;;5.40;;
9968;SDS011;5025;48.890;9.278;2023-09-08T09:21:46;5.60;;;5.20;;
9968;SDS011;5025;48.890;9.278;2023-09-08T09:24:13;5.90;;;5.50;;
9968;SDS011;5025;48.890;9.278;2023-09-08T09:26:42;5.70;;;5.37;;
9968;SDS011;5025;48.890;9.278;2023-09-08T09:29:14;5.23;;;4.83;;
9968;SDS011;5025;48.890;9.278;2023-09-08T09:31:56;6.20;;;5.63;;
9968;SDS011;5025;48.890;9.278;2023-09-08T09:34:28;5.90;;;5.50;;
9968;SDS011;5025;48.890;9.278;2023-09-08T09:36:55;5.73;;;5.33;;
9968;SDS011;5025;48.890;9.278;2023-09-08T09:39:21;5.57;;;5.17;;
9968;SDS011;5025;48.890;9.278;2023-09-08T09:41:48;5.93;;;5.53;;
9968;SDS011;5025;48.890;9.278;2023-09-08T09:44:15;5.97;;;5.57;;
9968;SDS011;5025;48.890;9.278;2023-09-08T09:46:44;5.70;;;5.30;;
9968;SDS011;5025;48.890;9.278;2023-09-08T09:49:11;6.60;;;5.67;;
9968;SDS011;5025;48.890;9.278;2023-09-08T09:51:45;5.90;;;5.40;;
9968;SDS011;5025;48.890;9.278;2023-09-08T09:54:12;5.50;;;5.20;;
9968;SDS011;5025;48.890;9.278;2023-09-08T09:56:38;5.33;;;5.03;;
9968;SDS011;5025;48.890;9.278;2023-09-08T09:59:05;5.30;;;4.90;;
9968;SDS011;5025;48.890;9.278;2023-09-08T10:01:33;5.60;;;5.20;;
9968;SDS011;5025;48.890;9.278;2023-09-08T10:04:00;5.20;;;4.80;;
9968;SDS011;5025;48.890;9.278;2023-09-08T10:06:25;5.80;;;5.37;;
9968;SDS011;5025;48.890;9.278;2023-09-08T10:08:51;4.87;;;4.57;;
9968;SDS011;5025;48.890;9.278;2023-09-08T10:11:17;4.87;;;4.57;;
9968;SDS011;5025;48.890;9.278;2023-09-08T10:13:46;4.80;;;4.50;;
9968;SDS011;5025;48.890;9.278;2023-09-08T10:16:15;4.67;;;4.37;;
9968;SDS011;5025;48.890;9.278;2023-09-08T10:18:44;4.80;;;4.47;;
9968;SDS011;5025;48.890;9.278;2023-09-08T10:21:11;4.30;;;4.07;;
9968;SDS011;5025;48.890;9.278;2023-09-08T10:23:38;4.40;;;4.20;;
9968;SDS011;5025;48.890;9.278;2023-09-08T10:26:09;4.47;;;4.23;;
9968;SDS011;5025;48.890;9.278;2023-09-08T10:28:35;4.50;;;4.20;;
9968;SDS011;5025;48.890;9.278;2023-09-08T10:31:02;4.50;;;4.20;;
9968;SDS011;5025;48.890;9.278;2023-09-08T10:33:28;4.17;;;3.80;;
9968;SDS011;5025;48.890;9.278;2023-09-08T10:35:54;4.00;;;3.80;;
9968;SDS011;5025;48.890;9.278;2023-09-08T10:38:21;3.97;;;3.77;;
9968;SDS011;5025;48.890;9.278;2023-09-08T10:40:48;3.97;;;3.70;;
9968;SDS011;5025;48.890;9.278;2023-09-08T10:43:13;3.93;;;3.73;;
9968;SDS011;5025;48.890;9.278;2023-09-08T10:45:39;4.20;;;4.00;;
9968;SDS011;5025;48.890;9.278;2023-09-08T10:48:06;4.40;;;4.10;;
9968;SDS011;5025;48.890;9.278;2023-09-08T10:50:32;3.73;;;3.53;;
9968;SDS011;5025;48.890;9.278;2023-09-08T10:53:10;3.97;;;3.77;;
9968;SDS011;5025;48.890;9.278;2023-09-08T10:55:39;3.83;;;3.63;;
9968;SDS011;5025;48.890;9.278;2023-09-08T10:58:06;4.03;;;3.83;;
9968;SDS011;5025;48.890;9.278;2023-09-08T11:00:45;3.70;;;3.50;;
9968;SDS011;5025;48.890;9.278;2023-09-08T11:03:13;4.13;;;3.93;;
9968;SDS011;5025;48.890;9.278;2023-09-08T11:05:39;3.70;;;3.50;;
9968;SDS011;5025;48.890;9.278;2023-09-08T11:08:04;4.10;;;3.90;;
9968;SDS011;5025;48.890;9.278;2023-09-08T11:10:30;4.30;;;4.00;;
9968;SDS011;5025;48.890;9.278;2023-09-08T11:12:58;4.23;;;3.83;;
9968;SDS011;5025;48.890;9.278;2023-09-08T11:15:25;3.53;;;3.40;;
9968;SDS011;5025;48.890;9.278;2023-09-08T11:17:50;4.23;;;3.93;;
9968;SDS011;5025;48.890;9.278;2023-09-08T11:20:25;4.57;;;4.23;;
9968;SDS011;5025;48.890;9.278;2023-09-08T11:22:52;4.03;;;3.83;;
9968;SDS011;5025;48.890;9.278;2023-09-08T11:25:17;4.07;;;3.87;;
9968;SDS011;5025;48.890;9.278;2023-09-08T11:27:45;4.37;;;4.17;;
9968;SDS011;5025;48.890;9.278;2023-09-08T11:30:10;4.57;;;4.33;;
9968;SDS011;5025;48.890;9.278;2023-09-08T11:32:37;4.20;;;4.00;;
9968;SDS011;5025;48.890;9.278;2023-09-08T11:35:05;3.90;;;3.70;;
9968;SDS011;5025;48.890;9.278;2023-09-08T11:37:34;4.10;;;3.90;;
9968;SDS011;5025;48.890;9.278;2023-09-08T11:40:04;4.10;;;3.80;;
9968;SDS011;5025;48.890;9.278;2023-09-08T11:42:38;3.93;;;3.73;;
9968;SDS011;5025;48.890;9.278;2023-09-08T11:45:08;4.13;;;3.93;;
9968;SDS011;5025;48.890;9.278;2023-09-08T11:47:35;4.90;;;4.60;;
9968;SDS011;5025;48.890;9.278;2023-09-08T11:50:01;4.70;;;4.40;;
9968;SDS011;5025;48.890;9.278;2023-09-08T11:52:27;5.50;;;5.07;;
9968;SDS011;5025;48.890;9.278;2023-09-08T11:54:52;4.80;;;4.50;;
9968;SDS011;5025;48.890;9.278;2023-09-08T11:57:18;4.43;;;4.13;;
9968;SDS011;5025;48.890;9.278;2023-09-08T11:59:44;5.00;;;4.70;;
9968;SDS011;5025;48.890;9.278;2023-09-08T12:02:13;4.90;;;4.50;;
9968;SDS011;5025;48.890;9.278;2023-09-08T12:04:38;5.17;;;4.77;;
9968;SDS011;5025;48.890;9.278;2023-09-08T12:07:05;5.20;;;4.80;;
9968;SDS011;5025;48.890;9.278;2023-09-08T12:09:30;4.67;;;4.37;;
9968;SDS011;5025;48.890;9.278;2023-09-08T12:11:56;4.40;;;4.10;;
9968;SDS011;5025;48.890;9.278;2023-09-08T12:14:27;4.60;;;4.30;;
9968;SDS011;5025;48.890;9.278;2023-09-08T12:17:04;4.23;;;3.90;;
9968;SDS011;5025;48.890;9.278;2023-09-08T12:19:32;4.23;;;4.00;;
9968;SDS011;5025;48.890;9.278;2023-09-08T12:21:58;3.80;;;3.60;;
9968;SDS011;5025;48.890;9.278;2023-09-08T12:27:19;5.23;;;4.83;;
9968;SDS011;5025;48.890;9.278;2023-09-08T12:29:57;5.30;;;4.90;;
9968;SDS011;5025;48.890;9.278;2023-09-08T12:32:25;4.80;;;4.50;;
9968;SDS011;5025;48.890;9.278;2023-09-08T12:34:53;4.87;;;4.53;;
9968;SDS011;5025;48.890;9.278;2023-09-08T12:37:22;5.20;;;4.90;;
9968;SDS011;5025;48.890;9.278;2023-09-08T12:39:48;4.60;;;4.37;;
9968;SDS011;5025;48.890;9.278;2023-09-08T12:42:13;5.00;;;4.50;;
9968;SDS011;5025;48.890;9.278;2023-09-08T12:44:39;5.47;;;4.97;;
9968;SDS011;5025;48.890;9.278;2023-09-08T12:47:05;7.37;;;5.37;;
9968;SDS011;5025;48.890;9.278;2023-09-08T12:49:31;5.53;;;5.10;;
9968;SDS011;5025;48.890;9.278;2023-09-08T12:51:56;4.90;;;4.60;;
9968;SDS011;5025;48.890;9.278;2023-09-08T12:54:21;5.00;;;4.60;;
9968;SDS011;5025;48.890;9.278;2023-09-08T12:56:46;4.50;;;4.20;;
9968;SDS011;5025;48.890;9.278;2023-09-08T12:59:12;4.87;;;4.57;;
9968;SDS011;5025;48.890;9.278;2023-09-08T13:01:37;4.60;;;4.30;;
9968;SDS011;5025;48.890;9.278;2023-09-08T13:04:03;4.30;;;4.00;;
9968;SDS011;5025;48.890;9.278;2023-09-08T13:06:28;3.90;;;3.70;;
9968;SDS011;5025;48.890;9.278;2023-09-08T13:08:53;3.93;;;3.63;;
9968;SDS011;5025;48.890;9.278;2023-09-08T13:11:19;4.20;;;4.00;;
9968;SDS011;5025;48.890;9.278;2023-09-08T13:13:44;4.70;;;4.40;;
9968;SDS011;5025;48.890;9.278;2023-09-08T13:16:09;5.27;;;4.87;;
9968;SDS011;5025;48.890;9.278;2023-09-08T13:18:34;4.90;;;4.60;;
9968;SDS011;5025;48.890;9.278;2023-09-08T13:21:03;4.63;;;4.33;;
9968;SDS011;5025;48.890;9.278;2023-09-08T13:23:29;4.90;;;4.50;;
9968;SDS011;5025;48.890;9.278;2023-09-08T13:25:54;4.80;;;4.50;;
9968;SDS011;5025;48.890;9.278;2023-09-08T13:28:19;4.83;;;4.43;;
9968;SDS011;5025;48.890;9.278;2023-09-08T13:30:44;4.30;;;4.10;;
9968;SDS011;5025;48.890;9.278;2023-09-08T13:33:09;4.07;;;3.87;;
9968;SDS011;5025;48.890;9.278;2023-09-08T13:35:35;3.73;;;3.53;;
9968;SDS011;5025;48.890;9.278;2023-09-08T13:38:00;3.80;;;3.60;;
9968;SDS011;5025;48.890;9.278;2023-09-08T13:40:27;4.03;;;3.83;;
9968;SDS011;5025;48.890;9.278;2023-09-08T13:42:53;4.00;;;3.80;;
9968;SDS011;5025;48.890;9.278;2023-09-08T13:45:18;3.93;;;3.73;;
9968;SDS011;5025;48.890;9.278;2023-09-08T13:47:44;4.00;;;3.80;;
9968;SDS011;5025;48.890;9.278;2023-09-08T13:50:09;3.87;;;3.67;;
9968;SDS011;5025;48.890;9.278;2023-09-08T13:52:34;3.80;;;3.60;;
9968;SDS011;5025;48.890;9.278;2023-09-08T13:54:59;3.87;;;3.67;;
9968;SDS011;5025;48.890;9.278;2023-09-08T13:57:25;3.70;;;3.50;;
9968;SDS011;5025;48.890;9.278;2023-09-08T13:59:51;4.00;;;3.70;;
9968;SDS011;5025;48.890;9.278;2023-09-08T14:02:16;3.78;;;3.58;;
9968;SDS011;5025;48.890;9.278;2023-09-08T14:04:41;3.90;;;3.60;;
9968;SDS011;5025;48.890;9.278;2023-09-08T14:07:07;3.38;;;3.28;;
9968;SDS011;5025;48.890;9.278;2023-09-08T14:09:33;3.60;;;3.40;;
9968;SDS011;5025;48.890;9.278;2023-09-08T14:11:58;3.72;;;3.53;;
9968;SDS011;5025;48.890;9.278;2023-09-08T14:14:24;3.95;;;3.75;;
9968;SDS011;5025;48.890;9.278;2023-09-08T14:16:49;3.60;;;3.40;;
9968;SDS011;5025;48.890;9.278;2023-09-08T14:19:15;3.42;;;3.30;;
9968;SDS011;5025;48.890;9.278;2023-09-08T14:21:40;3.63;;;3.40;;
9968;SDS011;5025;48.890;9.278;2023-09-08T14:24:05;3.72;;;3.50;;
9968;SDS011;5025;48.890;9.278;2023-09-08T14:26:31;3.72;;;3.42;;
9968;SDS011;5025;48.890;9.278;2023-09-08T14:28:56;3.10;;;3.00;;
9968;SDS011;5025;48.890;9.278;2023-09-08T14:31:21;3.38;;;3.28;;
9968;SDS011;5025;48.890;9.278;2023-09-08T14:33:47;3.38;;;3.17;;
9968;SDS011;5025;48.890;9.278;2023-09-08T14:36:16;3.22;;;3.03;;
9968;SDS011;5025;48.890;9.278;2023-09-08T14:38:42;3.20;;;3.10;;
9968;SDS011;5025;48.890;9.278;2023-09-08T14:41:07;3.13;;;3.03;;
9968;SDS011;5025;48.890;9.278;2023-09-08T14:43:32;3.75;;;3.55;;
9968;SDS011;5025;48.890;9.278;2023-09-08T14:45:58;3.17;;;3.05;;
9968;SDS011;5025;48.890;9.278;2023-09-08T14:48:23;3.50;;;3.30;;
9968;SDS011;5025;48.890;9.278;2023-09-08T14:50:49;3.20;;;3.00;;
9968;SDS011;5025;48.890;9.278;2023-09-08T14:53:14;2.95;;;2.85;;
9968;SDS011;5025;48.890;9.278;2023-09-08T14:55:39;3.25;;;3.15;;
9968;SDS011;5025;48.890;9.278;2023-09-08T14:58:05;3.55;;;3.35;;
9968;SDS011;5025;48.890;9.278;2023-09-08T15:00:31;3.25;;;3.10;;
9968;SDS011;5025;48.890;9.278;2023-09-08T15:02:56;3.17;;;3.08;;
9968;SDS011;5025;48.890;9.278;2023-09-08T15:05:21;3.45;;;3.20;;
9968;SDS011;5025;48.890;9.278;2023-09-08T15:07:47;3.10;;;3.00;;
9968;SDS011;5025;48.890;9.278;2023-09-08T15:10:12;3.67;;;3.47;;